Time;durP1;ratioP1;P1;durP2;ratioP2;P2;SDS_P1;SDS_P2;PMS_P1;PMS_P2;Temp;Humidity;BMP_temperature;BMP_pressure;BME280_temperature;BME280_humidity;BME280_pressure;Samples;Min_cycle;Max_cycle;Signal;HPM_P1;HPM_P2
2022/04/01 00:00:52;;;;;;;8.43;7.22;;;;;;;5.31;65.12;98816.25;5014179;28;20490;-51
2022/04/01 00:03:20;;;;;;;7.53;6.72;;;;;;;5.35;64.94;98812.53;5014276;28;20065;-49
2022/04/01 00:05:47;;;;;;;8.55;6.80;;;;;;;5.36;65.19;98818.88;5014320;28;20058;-54
2022/04/01 00:08:14;;;;;;;8.63;7.35;;;;;;;5.34;65.47;98827.47;5011805;28;20054;-51
2022/04/01 00:10:42;;;;;;;8.88;7.47;;;;;;;5.26;65.21;98812.50;5014655;28;20475;-55
2022/04/01 00:13:09;;;;;;;8.43;7.43;;;;;;;5.31;65.11;98821.78;5014576;28;20414;-49
2022/04/01 00:15:38;;;;;;;7.43;6.72;;;;;;;5.29;65.13;98817.41;5014213;28;20046;-50
2022/04/01 00:18:06;;;;;;;8.25;7.45;;;;;;;5.23;65.33;98828.91;5013126;28;20061;-50
2022/04/01 00:20:33;;;;;;;7.97;7.18;;;;;;;5.22;65.36;98832.78;5013440;28;20054;-49
2022/04/01 00:23:01;;;;;;;7.88;7.07;;;;;;;5.25;65.49;98832.16;5013856;28;20069;-50
2022/04/01 00:25:29;;;;;;;7.82;6.72;;;;;;;5.27;65.52;98824.34;5014266;28;20084;-49
2022/04/01 00:27:56;;;;;;;9.15;7.47;;;;;;;5.31;65.16;98841.91;5011353;28;20066;-50
2022/04/01 00:30:24;;;;;;;7.65;6.85;;;;;;;5.29;64.96;98835.88;4994828;28;20061;-51
2022/04/01 00:32:52;;;;;;;7.38;6.57;;;;;;;5.28;65.11;98832.31;4994734;28;20062;-54
2022/04/01 00:35:20;;;;;;;10.90;7.18;;;;;;;5.26;64.90;98840.09;4994236;28;20483;-54
2022/04/01 00:37:47;;;;;;;11.38;7.63;;;;;;;5.06;65.23;98847.03;5004971;28;20050;-50
2022/04/01 00:40:15;;;;;;;8.38;7.55;;;;;;;5.13;65.31;98851.28;4998975;28;20054;-50
2022/04/01 00:42:44;;;;;;;7.57;6.80;;;;;;;5.17;65.26;98855.84;4994185;28;20054;-52
2022/04/01 00:45:11;;;;;;;8.18;7.00;;;;;;;5.15;65.17;98860.84;4995192;28;20050;-53
2022/04/01 00:47:39;;;;;;;7.47;6.72;;;;;;;5.07;65.44;98847.84;5012554;28;20046;-51
2022/04/01 00:50:09;;;;;;;7.32;6.03;;;;;;;5.05;65.03;98859.19;5013400;28;20065;-55
2022/04/01 00:52:37;;;;;;;6.60;5.90;;;;;;;5.08;65.20;98866.84;4995567;28;20506;-52
2022/04/01 00:55:06;;;;;;;7.72;5.90;;;;;;;5.02;65.05;98868.09;5013689;28;20050;-50
2022/04/01 00:57:33;;;;;;;6.55;5.88;;;;;;;5.04;65.31;98873.28;5013444;28;20058;-53
2022/04/01 01:00:01;;;;;;;7.63;6.13;;;;;;;5.09;64.85;98864.88;4998548;28;20069;-50
2022/04/01 01:02:28;;;;;;;7.65;6.70;;;;;;;5.03;64.72;98874.44;5012371;28;20049;-53
2022/04/01 01:04:56;;;;;;;6.65;5.95;;;;;;;5.05;64.91;98877.69;5013283;28;20058;-50
2022/04/01 01:10:47;;;;;;;7.57;6.25;;;;;;;5.04;65.01;98874.13;4999760;28;20061;-51
2022/04/01 01:13:15;;;;;;;6.85;6.13;;;;;;;5.10;65.40;98869.25;4993968;28;20061;-50
2022/04/01 01:15:42;;;;;;;6.97;6.28;;;;;;;5.14;64.87;98870.25;4993899;28;20051;-50
2022/04/01 01:18:10;;;;;;;7.53;6.82;;;;;;;5.14;65.05;98863.94;5009720;28;20076;-51
2022/04/01 01:20:37;;;;;;;8.30;7.05;;;;;;;5.16;65.16;98865.22;4996131;28;20054;-52
2022/04/01 01:23:05;;;;;;;7.45;6.00;;;;;;;5.12;65.45;98866.19;4993456;28;20058;-50
2022/04/01 01:25:36;;;;;;;6.53;5.93;;;;;;;5.07;65.31;98867.16;5007283;28;20046;-51
2022/04/01 01:28:04;;;;;;;7.22;5.93;;;;;;;5.13;64.83;98857.59;5013319;28;20058;-49
2022/04/01 01:30:32;;;;;;;7.60;5.95;;;;;;;5.14;65.03;98866.69;5012268;28;20054;-50
2022/04/01 01:33:01;;;;;;;7.22;6.07;;;;;;;5.20;64.43;98865.41;5011780;28;20050;-49
2022/04/01 01:35:29;;;;;;;8.82;6.22;;;;;;;5.17;64.15;98864.13;5013499;28;20403;-50
2022/04/01 01:37:57;;;;;;;6.28;5.68;;;;;;;5.11;64.06;98867.34;5012720;28;20058;-54
2022/04/01 01:40:24;;;;;;;6.90;6.20;;;;;;;5.03;63.67;98852.34;5012698;28;20061;-54
2022/04/01 01:42:53;;;;;;;6.50;5.78;;;;;;;4.95;64.19;98862.22;5012641;28;20057;-54
2022/04/01 01:45:20;;;;;;;6.63;5.93;;;;;;;4.97;64.50;98864.66;5004292;28;20046;-51
2022/04/01 01:47:48;;;;;;;7.32;5.60;;;;;;;4.95;64.04;98861.41;4993094;28;20065;-51
2022/04/01 01:55:45;;;;;;;6.28;5.25;;;;;;;4.85;64.38;98857.78;5018641;28;20061;-53
2022/04/01 01:58:15;;;;;;;5.97;5.15;;;;;;;4.87;64.34;98861.06;4999319;28;20058;-52
2022/04/01 02:00:42;;;;;;;6.63;4.78;;;;;;;4.82;64.11;98855.66;4998248;28;20065;-54
2022/04/01 02:03:10;;;;;;;6.22;5.05;;;;;;;4.85;64.23;98863.31;5011866;28;20399;-52
2022/04/01 02:05:38;;;;;;;7.75;5.47;;;;;;;4.88;63.86;98856.34;5012352;28;20045;-51
2022/04/01 02:08:06;;;;;;;6.43;5.47;;;;;;;4.85;64.17;98863.31;5011918;28;20057;-50
2022/04/01 02:10:34;;;;;;;5.43;4.68;;;;;;;4.83;64.23;98865.56;5011180;28;20054;-54
2022/04/01 02:13:01;;;;;;;6.63;5.18;;;;;;;4.80;64.56;98859.88;5012455;28;20054;-49
2022/04/01 02:15:32;;;;;;;5.70;4.75;;;;;;;4.86;63.92;98870.44;4997277;28;20054;-50
2022/04/01 02:18:00;;;;;;;6.43;4.35;;;;;;;4.90;63.84;98867.06;4992933;28;20065;-50
2022/04/01 02:20:30;;;;;;;5.80;4.45;;;;;;;4.85;63.55;98868.81;4996062;28;20049;-50
2022/04/01 02:22:58;;;;;;;5.38;4.78;;;;;;;4.82;63.85;98880.47;5004583;28;20050;-49
2022/04/01 02:25:25;;;;;;;4.70;3.80;;;;;;;4.73;64.18;98881.56;4993284;28;20050;-50
2022/04/01 02:27:52;;;;;;;5.43;4.30;;;;;;;4.76;63.80;98875.41;5002874;28;20056;-51
2022/04/01 02:30:20;;;;;;;5.85;4.72;;;;;;;4.66;64.03;98887.50;5012831;28;20065;-51
2022/04/01 02:32:48;;;;;;;6.72;4.45;;;;;;;4.66;64.39;98890.25;5012390;28;20054;-51
2022/04/01 02:35:16;;;;;;;4.70;4.10;;;;;;;4.65;64.15;98891.41;4996370;28;20054;-50
2022/04/01 02:37:43;;;;;;;5.35;4.00;;;;;;;4.61;64.26;98888.47;4992753;28;20061;-50
2022/04/01 02:40:11;;;;;;;5.72;4.20;;;;;;;4.59;63.99;98887.16;4992955;28;20054;-51
2022/04/01 02:42:39;;;;;;;5.05;4.15;;;;;;;4.50;64.24;98892.59;4992481;28;20054;-51
2022/04/01 02:45:07;;;;;;;8.20;4.65;;;;;;;4.54;64.24;98895.56;5011214;28;20054;-50
2022/04/01 02:47:35;;;;;;;5.43;4.57;;;;;;;4.59;64.59;98898.19;4997069;28;20054;-52
2022/04/01 02:50:06;;;;;;;5.30;4.22;;;;;;;4.59;64.50;98898.19;4992822;28;20054;-49
2022/04/01 02:52:33;;;;;;;5.78;4.45;;;;;;;4.56;63.80;98898.81;4994410;28;20061;-49
2022/04/01 02:55:00;;;;;;;4.25;3.80;;;;;;;4.53;64.15;98899.44;5012394;28;20054;-52
2022/04/01 02:57:28;;;;;;;4.00;3.60;;;;;;;4.55;64.27;98902.69;5005257;28;20419;-49
2022/04/01 02:59:55;;;;;;;4.72;4.22;;;;;;;4.56;64.29;98901.56;4992675;28;20058;-50
2022/04/01 03:02:23;;;;;;;4.22;3.53;;;;;;;4.51;64.25;98901.69;5004380;28;20058;-49
2022/04/01 03:04:50;;;;;;;5.60;4.03;;;;;;;4.58;64.37;98904.84;5016286;28;20069;-49
2022/04/01 03:07:19;;;;;;;4.32;3.60;;;;;;;4.57;64.37;98901.25;5015386;28;20049;-50
2022/04/01 03:09:46;;;;;;;3.90;3.45;;;;;;;4.62;64.63;98898.38;5015928;28;20077;-50
2022/04/01 03:12:14;;;;;;;5.00;3.60;;;;;;;4.64;63.98;98898.88;5015480;28;20068;-49
2022/04/01 03:14:41;;;;;;;3.92;3.53;;;;;;;4.63;63.91;98897.22;5015730;28;20057;-51
2022/04/01 03:17:09;;;;;;;4.55;3.50;;;;;;;4.61;63.67;98907.75;5015655;28;20050;-50
2022/04/01 03:19:39;;;;;;;4.25;3.20;;;;;;;4.64;63.87;98907.16;5016003;28;20064;-50
2022/04/01 03:22:06;;;;;;;4.50;3.80;;;;;;;4.65;63.55;98913.47;5004776;28;20058;-50
2022/04/01 03:24:35;;;;;;;5.22;3.70;;;;;;;4.64;63.44;98909.91;4996407;28;20058;-52
2022/04/01 03:27:03;;;;;;;6.10;3.80;;;;;;;4.66;63.46;98901.28;4996929;28;20050;-51
2022/04/01 03:29:32;;;;;;;4.53;3.40;;;;;;;4.64;63.95;98909.06;4995964;28;20054;-50
2022/04/01 03:31:59;;;;;;;4.88;3.80;;;;;;;4.61;63.73;98909.72;5010750;28;20065;-51
2022/04/01 03:34:27;;;;;;;3.97;3.53;;;;;;;4.58;63.63;98913.09;5015795;28;20069;-50
2022/04/01 03:36:54;;;;;;;4.32;3.47;;;;;;;4.48;63.65;98917.72;5013749;28;20072;-51
2022/04/01 03:39:24;;;;;;;4.32;3.03;;;;;;;4.46;63.84;98906.19;4995796;28;20392;-50
2022/04/01 03:41:54;;;;;;;4.68;4.20;;;;;;;4.36;64.68;98920.22;4999188;28;20060;-52
2022/04/01 03:44:24;;;;;;;4.13;3.72;;;;;;;4.35;64.15;98918.59;5014865;28;20045;-50
2022/04/01 03:46:59;;;;;;;4.03;3.63;;;;;;;4.44;64.57;98924.97;5013522;28;20057;-52
2022/04/01 03:49:29;;;;;;;7.70;3.78;;;;;;;4.48;64.40;98936.22;5015238;28;20053;-50
2022/04/01 03:51:56;;;;;;;4.82;3.60;;;;;;;4.44;64.52;98930.50;5014803;28;20060;-51
2022/04/01 03:54:26;;;;;;;4.65;3.63;;;;;;;4.50;64.37;98920.19;5014804;28;20061;-52
2022/04/01 03:56:59;;;;;;;4.38;3.75;;;;;;;4.39;64.11;98929.78;5003886;28;20065;-50
2022/04/01 03:59:40;;;;;;;4.68;4.20;;;;;;;4.44;64.02;98927.75;5014249;28;20054;-52
2022/04/01 04:02:11;;;;;;;4.32;3.92;;;;;;;4.42;64.55;98938.25;5004059;28;20073;-54
2022/04/01 04:04:39;;;;;;;4.47;3.50;;;;;;;4.45;63.88;98932.16;5005787;28;20058;-51
2022/04/01 04:07:08;;;;;;;4.18;3.60;;;;;;;4.39;63.89;98927.88;5013032;28;20382;-51
2022/04/01 04:09:38;;;;;;;3.88;3.47;;;;;;;4.33;64.27;98934.63;5010345;28;20065;-49
2022/04/01 04:12:07;;;;;;;;;;;;;;;4.30;63.92;98940.75;5015468;28;20053;-49
2022/04/01 04:14:36;;;;;;;4.37;3.70;;;;;;;4.27;64.04;98939.44;4996442;28;19921;-49
2022/04/01 04:17:10;;;;;;;4.88;3.92;;;;;;;4.28;64.44;98954.03;4995043;28;20462;-49
2022/04/01 04:19:50;;;;;;;5.82;3.92;;;;;;;4.34;64.18;98947.28;5001079;28;20069;-52
2022/04/01 04:22:23;;;;;;;4.00;3.60;;;;;;;4.34;64.50;98958.28;5014266;28;20495;-49
2022/04/01 04:24:55;;;;;;;4.07;3.67;;;;;;;4.39;64.01;98960.97;5014165;28;20054;-51
2022/04/01 04:27:28;;;;;;;4.07;3.15;;;;;;;4.41;64.42;98966.97;5000789;28;20050;-51
2022/04/01 04:30:06;;;;;;;4.22;3.80;;;;;;;4.42;63.78;98974.09;4997101;28;20061;-49
2022/04/01 04:32:36;;;;;;;4.78;3.78;;;;;;;4.44;63.97;98980.13;5011835;28;20053;-49
2022/04/01 04:35:06;;;;;;;4.50;3.95;;;;;;;4.45;63.94;98976.25;5013484;28;20057;-52
2022/04/01 04:37:35;;;;;;;4.03;3.63;;;;;;;4.46;63.75;98977.06;5011086;28;20480;-50
2022/04/01 04:40:04;;;;;;;4.15;3.38;;;;;;;4.46;63.54;98980.63;5014161;28;20474;-49
2022/04/01 04:42:33;;;;;;;3.53;3.23;;;;;;;4.24;63.15;98986.09;5006763;28;20058;-51
2022/04/01 04:45:04;;;;;;;4.60;3.50;;;;;;;4.34;63.13;98988.63;5012778;28;20488;-49
2022/04/01 04:47:33;;;;;;;4.53;3.72;;;;;;;4.32;63.54;98990.06;5012021;28;20441;-51
2022/04/01 04:50:02;;;;;;;4.93;3.85;;;;;;;4.32;63.54;98993.63;5013774;28;20498;-51
2022/04/01 04:52:31;;;;;;;4.13;3.67;;;;;;;4.32;63.22;98992.81;5014002;28;20053;-52
2022/04/01 04:55:00;;;;;;;3.88;3.15;;;;;;;4.32;63.36;98998.31;5003425;28;20045;-54
2022/04/01 04:57:28;;;;;;;3.47;3.15;;;;;;;4.38;63.15;99000.66;5006731;28;20077;-51
2022/04/01 05:00:00;;;;;;;4.05;3.63;;;;;;;4.39;63.24;99004.22;4998003;28;20073;-50
2022/04/01 05:02:42;;;;;;;4.15;3.58;;;;;;;4.31;63.02;99005.78;5001856;28;20134;-49
2022/04/01 05:05:16;;;;;;;5.07;3.40;;;;;;;4.28;62.95;99003.63;5012085;28;20060;-51
2022/04/01 05:08:07;;;;;;;4.60;3.17;;;;;;;4.24;62.32;99008.97;5012260;28;20053;-50
2022/04/01 05:10:42;;;;;;;4.65;3.53;;;;;;;4.18;63.10;99012.13;5013203;28;20054;-49
2022/04/01 05:13:21;;;;;;;4.50;3.75;;;;;;;4.26;62.98;99016.91;5011119;28;20056;-49
2022/04/01 05:15:54;;;;;;;4.67;3.67;;;;;;;4.21;63.22;99026.09;5002818;28;20513;-50
2022/04/01 05:18:26;;;;;;;3.88;3.47;;;;;;;4.33;62.64;99027.53;5012254;28;20477;-50
2022/04/01 05:20:58;;;;;;;3.47;3.03;;;;;;;4.33;62.79;99031.09;5013083;28;20046;-50
2022/04/01 05:23:35;;;;;;;3.78;3.30;;;;;;;4.32;62.65;99031.41;5008751;28;20053;-51
2022/04/01 05:26:12;;;;;;;3.70;3.40;;;;;;;4.34;62.35;99032.72;5013159;28;20054;-52
2022/04/01 05:28:45;;;;;;;4.15;3.75;;;;;;;4.34;62.68;99040.19;5013000;28;20418;-52
2022/04/01 05:31:20;;;;;;;4.43;4.03;;;;;;;4.38;62.30;99042.00;5012365;28;20049;-50
2022/04/01 05:33:54;;;;;;;4.72;3.75;;;;;;;4.40;62.15;99044.47;5001492;28;20062;-52
2022/04/01 05:36:22;;;;;;;5.05;4.55;;;;;;;4.32;62.14;99054.25;5009908;28;20041;-50
2022/04/01 05:38:50;;;;;;;4.82;4.30;;;;;;;4.29;62.33;99054.91;5004337;28;20049;-51
2022/04/01 05:41:19;;;;;;;5.20;4.35;;;;;;;4.26;62.58;99058.25;5012473;28;20053;-51
2022/04/01 05:43:48;;;;;;;5.53;4.45;;;;;;;4.33;62.89;99063.38;5000180;28;20057;-52
2022/04/01 05:46:18;;;;;;;4.78;4.32;;;;;;;4.35;62.97;99063.88;5006638;28;20053;-51
2022/04/01 05:48:47;;;;;;;6.07;4.85;;;;;;;4.34;62.90;99067.75;5013104;28;20057;-51
2022/04/01 05:51:16;;;;;;;4.72;4.32;;;;;;;4.41;63.03;99062.63;5001946;28;20065;-51
2022/04/01 05:53:46;;;;;;;5.63;5.13;;;;;;;4.45;62.51;99067.22;5012804;28;20062;-54
2022/04/01 05:56:15;;;;;;;5.72;5.13;;;;;;;4.44;62.75;99073.84;5010915;28;20065;-51
2022/04/01 05:58:43;;;;;;;5.88;5.28;;;;;;;4.47;62.76;99077.94;5006722;28;20046;-49
2022/04/01 06:01:22;;;;;;;5.93;5.32;;;;;;;4.47;62.94;99078.78;5001173;28;20093;-50
2022/04/01 06:04:26;;;;;;;5.57;5.07;;;;;;;4.51;62.91;99083.66;5001363;28;20050;-51
2022/04/01 06:07:01;;;;;;;5.78;5.18;;;;;;;4.55;62.42;99084.66;4997755;28;20486;-52
2022/04/01 06:09:36;;;;;;;6.32;5.32;;;;;;;4.54;62.59;99088.56;4993720;28;20661;-50
2022/04/01 06:12:13;;;;;;;5.60;5.10;;;;;;;4.58;62.34;99084.06;4993114;28;20073;-53
2022/04/01 06:14:51;;;;;;;8.13;4.50;;;;;;;4.62;62.14;99082.31;4996395;28;20053;-49
2022/04/01 06:17:31;;;;;;;4.43;4.03;;;;;;;4.54;62.70;99094.09;5005262;28;20049;-52
2022/04/01 06:20:03;;;;;;;4.53;4.00;;;;;;;4.51;62.02;99095.50;5006808;28;20061;-54
2022/04/01 06:22:33;;;;;;;5.25;4.65;;;;;;;4.54;62.16;99096.84;5009982;28;20054;-50
2022/04/01 06:25:05;;;;;;;6.10;4.45;;;;;;;4.54;61.85;99105.13;5005671;28;20065;-49
2022/04/01 06:27:39;;;;;;;5.13;3.90;;;;;;;4.52;62.29;99107.38;5006052;28;20077;-51
2022/04/01 06:30:09;;;;;;;4.90;4.40;;;;;;;4.56;62.47;99113.91;4997948;28;20057;-49
2022/04/01 06:32:49;;;;;;;4.97;4.53;;;;;;;4.59;62.08;99118.78;5011676;28;20057;-50
2022/04/01 06:35:19;;;;;;;4.82;4.32;;;;;;;4.52;62.58;99113.69;5011878;28;20058;-52
2022/04/01 06:37:56;;;;;;;4.30;3.70;;;;;;;4.62;62.05;99118.16;5014986;28;20054;-50
2022/04/01 06:40:28;;;;;;;4.70;4.20;;;;;;;4.61;62.19;99122.06;5010519;28;20403;-50
2022/04/01 06:42:56;;;;;;;3.92;3.50;;;;;;;4.62;62.27;99123.66;5014916;28;20054;-49
2022/04/01 06:45:24;;;;;;;4.18;3.78;;;;;;;4.65;62.37;99134.09;5015071;28;20082;-49
2022/04/01 06:47:52;;;;;;;4.32;3.92;;;;;;;4.62;62.00;99129.19;5014802;28;20046;-49
2022/04/01 06:50:20;;;;;;;4.70;3.67;;;;;;;4.59;62.20;99135.31;4999868;28;20533;-50
2022/04/01 06:52:48;;;;;;;4.28;3.72;;;;;;;4.58;62.00;99130.94;4996521;28;20415;-51
2022/04/01 06:55:16;;;;;;;4.05;3.65;;;;;;;4.61;62.06;99128.38;5004826;28;20499;-50
2022/04/01 06:57:43;;;;;;;3.97;3.47;;;;;;;4.59;62.04;99129.81;4998743;28;20050;-48
2022/04/01 07:00:13;;;;;;;5.30;4.53;;;;;;;4.42;62.22;99136.75;5006303;28;20069;-50
2022/04/01 07:02:41;;;;;;;4.50;3.83;;;;;;;4.64;62.89;99143.47;5013335;28;20417;-48
2022/04/01 07:05:10;;;;;;;4.55;4.15;;;;;;;4.74;62.17;99146.03;5007356;28;20482;-53
2022/04/01 07:07:41;;;;;;;5.03;4.53;;;;;;;4.68;61.14;99147.25;5009364;28;20045;-49
2022/04/01 07:10:12;;;;;;;5.38;3.60;;;;;;;4.85;61.18;99154.91;5012678;28;20061;-48
2022/04/01 07:12:39;;;;;;;4.63;3.58;;;;;;;4.91;61.37;99156.41;5007753;28;20080;-50
2022/04/01 07:15:08;;;;;;;4.28;3.88;;;;;;;4.94;60.65;99164.09;5015485;28;20050;-48
2022/04/01 07:17:35;;;;;;;4.55;3.80;;;;;;;5.03;60.27;99161.41;5011539;28;20060;-48
2022/04/01 07:20:03;;;;;;;3.67;3.25;;;;;;;4.97;60.16;99163.47;5012584;28;20050;-48
2022/04/01 07:22:32;;;;;;;4.10;3.70;;;;;;;4.99;59.95;99165.94;5015079;28;20062;-53
2022/04/01 07:24:59;;;;;;;4.13;3.35;;;;;;;4.99;60.19;99166.72;5010287;28;20046;-50
2022/04/01 07:27:29;;;;;;;3.63;3.15;;;;;;;5.06;59.89;99171.81;5008496;28;20058;-48
2022/04/01 07:29:56;;;;;;;4.05;3.65;;;;;;;5.05;59.93;99175.72;5014351;28;20080;-49
2022/04/01 07:32:33;;;;;;;5.53;3.95;;;;;;;5.04;59.71;99174.91;5013275;28;20414;-48
2022/04/01 07:35:01;;;;;;;4.43;3.47;;;;;;;5.07;59.75;99181.75;5002978;28;20054;-48
2022/04/01 07:37:29;;;;;;;4.07;3.45;;;;;;;4.86;59.73;99178.63;5014595;28;20124;-52
2022/04/01 07:39:59;;;;;;;4.30;3.38;;;;;;;4.86;59.65;99179.44;5012917;28;20542;-51
2022/04/01 07:42:28;;;;;;;5.25;4.00;;;;;;;4.88;59.60;99185.44;5003783;28;20057;-49
2022/04/01 07:44:56;;;;;;;5.32;3.78;;;;;;;4.92;59.92;99185.66;5012651;28;20057;-48
2022/04/01 07:47:24;;;;;;;4.00;3.60;;;;;;;4.77;60.05;99195.06;5013204;28;20054;-48
2022/04/01 07:49:52;;;;;;;4.10;3.70;;;;;;;4.78;59.90;99201.41;5009950;28;20502;-49
2022/04/01 07:52:21;;;;;;;4.18;3.75;;;;;;;4.87;59.67;99194.88;4996877;28;20050;-49
2022/04/01 07:54:50;;;;;;;4.03;3.63;;;;;;;4.90;59.81;99200.91;5014499;28;20483;-51
2022/04/01 07:57:20;;;;;;;4.45;3.63;;;;;;;4.85;60.31;99207.31;5011078;28;20052;-50
2022/04/01 07:59:48;;;;;;;4.20;3.70;;;;;;;4.82;60.28;99206.00;5013694;28;20049;-48
2022/04/01 08:02:16;;;;;;;3.40;3.10;;;;;;;4.90;60.25;99207.22;5006480;28;20072;-51
2022/04/01 08:04:44;;;;;;;4.15;3.63;;;;;;;5.00;59.68;99211.72;5004617;28;20054;-52
2022/04/01 08:07:12;;;;;;;4.60;3.65;;;;;;;5.04;59.49;99212.72;5006674;28;20057;-48
2022/04/01 08:09:39;;;;;;;4.25;3.28;;;;;;;5.03;59.60;99217.41;5013943;28;20068;-48
2022/04/01 08:12:08;;;;;;;4.75;3.30;;;;;;;5.13;59.18;99212.81;5013392;28;20053;-48
2022/04/01 08:14:37;;;;;;;4.00;3.38;;;;;;;4.97;59.51;99228.88;5013581;28;20057;-50
2022/04/01 08:17:06;;;;;;;3.00;2.70;;;;;;;4.86;59.93;99223.56;5012558;28;20482;-50
2022/04/01 08:19:33;;;;;;;4.40;3.30;;;;;;;4.84;60.26;99233.28;5013754;28;20053;-50
2022/04/01 08:22:01;;;;;;;3.90;3.38;;;;;;;4.86;60.53;99234.59;5012843;28;20061;-49
2022/04/01 08:24:28;;;;;;;4.70;3.38;;;;;;;4.84;60.22;99250.66;5012603;28;20054;-51
2022/04/01 08:26:57;;;;;;;5.22;3.72;;;;;;;4.66;61.07;99244.13;5011510;28;20057;-48
2022/04/01 08:29:26;;;;;;;3.95;3.30;;;;;;;4.66;61.42;99254.31;4995966;28;20057;-50
2022/04/01 08:31:54;;;;;;;4.15;3.20;;;;;;;4.60;61.82;99250.84;5010866;28;20057;-52
2022/04/01 08:34:21;;;;;;;4.10;3.70;;;;;;;4.66;61.73;99254.31;5002082;28;20051;-50
2022/04/01 08:36:49;;;;;;;4.18;3.55;;;;;;;4.71;62.36;99256.19;5008942;28;20057;-48
2022/04/01 08:39:17;;;;;;;4.55;3.35;;;;;;;4.72;62.01;99260.56;5013757;28;20046;-50
2022/04/01 08:41:44;;;;;;;4.75;3.60;;;;;;;4.79;61.79;99261.78;5012587;28;20498;-50
2022/04/01 08:44:13;;;;;;;5.03;3.78;;;;;;;4.72;62.11;99258.59;5013690;28;20057;-50
2022/04/01 08:46:40;;;;;;;3.85;3.30;;;;;;;4.78;61.72;99271.19;5011720;28;20045;-48
2022/04/01 08:49:09;;;;;;;3.92;3.38;;;;;;;4.81;61.44;99273.34;5011947;28;20046;-50
2022/04/01 08:51:36;;;;;;;4.65;3.40;;;;;;;4.78;61.18;99284.97;5003659;28;20394;-50
2022/04/01 08:54:04;;;;;;;4.07;3.67;;;;;;;4.76;61.40;99278.13;5006120;28;20394;-48
2022/04/01 08:56:32;;;;;;;4.15;3.40;;;;;;;4.77;60.84;99296.34;5012486;28;20054;-49
2022/04/01 08:58:59;;;;;;;4.50;3.75;;;;;;;4.74;60.87;99289.47;5012971;28;20069;-50
2022/04/01 09:01:39;;;;;;;5.80;3.80;;;;;;;4.68;61.24;99283.25;5011745;28;20460;-53
2022/04/01 09:04:19;;;;;;;5.07;3.67;;;;;;;4.64;61.29;99298.75;4992343;28;20061;-49
2022/04/01 09:06:46;;;;;;;4.00;3.60;;;;;;;4.65;61.90;99296.81;4993495;28;20050;-48
2022/04/01 09:09:31;;;;;;;4.28;3.33;;;;;;;4.68;61.81;99304.47;4992992;28;20065;-53
2022/04/01 09:12:07;;;;;;;4.70;3.70;;;;;;;4.67;61.95;99309.19;4992105;28;20055;-49
2022/04/01 09:14:34;;;;;;;4.35;3.83;;;;;;;4.64;62.37;99309.78;4992667;28;20061;-50
2022/04/01 09:17:02;;;;;;;4.97;4.15;;;;;;;4.77;62.40;99310.13;4991586;28;20494;-48
2022/04/01 09:19:32;;;;;;;4.43;3.80;;;;;;;4.86;61.88;99311.03;4993134;28;20054;-50
2022/04/01 09:22:15;;;;;;;4.78;3.85;;;;;;;4.87;62.19;99313.50;4992986;28;20054;-49
2022/04/01 09:24:56;;;;;;;5.07;4.15;;;;;;;4.77;61.54;99310.94;4991915;28;20054;-50
2022/04/01 09:27:40;;;;;;;4.43;3.53;;;;;;;4.90;61.62;99322.28;4992736;28;20414;-49
2022/04/01 09:30:09;;;;;;;4.68;3.60;;;;;;;5.02;61.77;99325.38;4989322;28;20050;-51
2022/04/01 09:32:38;;;;;;;6.55;3.95;;;;;;;5.13;61.93;99314.94;4992304;28;20062;-50
2022/04/01 09:35:10;;;;;;;4.15;3.50;;;;;;;5.12;61.46;99316.06;4980547;28;20054;-50
2022/04/01 09:37:39;;;;;;;4.65;4.13;;;;;;;5.24;61.05;99327.41;4981963;28;20488;-48
2022/04/01 09:40:08;;;;;;;4.53;3.60;;;;;;;5.36;61.46;99318.63;4988895;28;20046;-50
2022/04/01 09:42:36;;;;;;;4.72;4.20;;;;;;;5.47;61.64;99329.13;4992506;28;20058;-48
2022/04/01 09:45:04;;;;;;;3.90;3.50;;;;;;;5.57;61.36;99327.28;4991045;28;20410;-50
2022/04/01 09:47:37;;;;;;;5.80;4.13;;;;;;;5.61;60.59;99328.31;4993003;28;20050;-48
2022/04/01 09:50:14;;;;;;;4.72;3.80;;;;;;;5.41;61.01;99329.56;4986498;28;20050;-48
2022/04/01 09:52:42;;;;;;;4.35;3.40;;;;;;;5.53;61.97;99327.09;4991400;28;20061;-48
2022/04/01 09:55:10;;;;;;;4.45;3.35;;;;;;;5.59;62.25;99334.13;4980668;28;20435;-48
2022/04/01 09:57:38;;;;;;;4.07;3.42;;;;;;;5.69;61.83;99333.06;4988663;28;20073;-52
2022/04/01 10:00:09;;;;;;;5.57;3.75;;;;;;;5.55;62.19;99335.88;4990106;28;20046;-48
2022/04/01 10:02:39;;;;;;;4.70;3.42;;;;;;;5.45;60.75;99331.38;4994419;28;20064;-50
2022/04/01 10:05:07;;;;;;;4.38;3.95;;;;;;;5.45;60.83;99336.91;5010929;28;20387;-51
2022/04/01 10:07:37;;;;;;;4.53;4.00;;;;;;;5.45;61.11;99333.34;5011310;28;20053;-53
2022/04/01 10:10:08;;;;;;;;;;;;;;;5.47;60.66;99339.38;5006100;28;20054;-49
2022/04/01 10:12:42;;;;;;;6.10;4.05;;;;;;;5.56;61.15;99333.94;5006749;28;19928;-49
2022/04/01 10:15:11;;;;;;;5.32;4.13;;;;;;;5.41;61.01;99348.88;5001454;28;20056;-48
2022/04/01 10:17:42;;;;;;;4.53;3.65;;;;;;;5.55;61.71;99338.63;5008801;28;20053;-49
2022/04/01 10:20:13;;;;;;;4.88;3.47;;;;;;;5.59;61.60;99345.19;5003862;28;20045;-49
2022/04/01 10:22:43;;;;;;;4.25;3.60;;;;;;;5.54;61.13;99347.22;5008113;28;20058;-50
2022/04/01 10:25:17;;;;;;;4.85;3.95;;;;;;;5.49;62.06;99360.00;5002860;28;20050;-50
2022/04/01 10:27:49;;;;;;;4.93;4.00;;;;;;;5.54;62.28;99358.28;4997163;28;20055;-49
2022/04/01 10:30:19;;;;;;;5.78;4.00;;;;;;;5.40;62.41;99358.31;5011603;28;20049;-48
2022/04/01 10:32:48;;;;;;;4.38;3.67;;;;;;;5.43;62.32;99363.19;5011768;28;20077;-49
2022/04/01 10:35:24;;;;;;;4.60;4.00;;;;;;;5.38;61.90;99360.56;5012099;28;20057;-53
2022/04/01 10:38:14;;;;;;;5.38;4.15;;;;;;;5.36;62.56;99360.84;5003769;28;20061;-50
2022/04/01 10:40:44;;;;;;;5.80;4.38;;;;;;;5.36;62.11;99365.56;4998123;28;20054;-50
2022/04/01 10:43:13;;;;;;;6.05;4.00;;;;;;;5.35;62.03;99364.72;5011151;28;20065;-50
2022/04/01 10:45:42;;;;;;;7.47;3.97;;;;;;;5.34;61.46;99367.81;5010831;28;20065;-50
2022/04/01 10:54:00;;;;;;;5.80;4.22;;;;;;;5.23;62.00;99369.97;5008906;28;20065;-50
2022/04/01 10:56:32;;;;;;;5.50;4.90;;;;;;;5.27;62.19;99376.47;5006992;28;20045;-50
2022/04/01 10:59:09;;;;;;;6.55;5.10;;;;;;;5.19;62.64;99382.75;5010292;28;20065;-50
2022/04/01 11:01:38;;;;;;;5.10;4.60;;;;;;;5.24;61.79;99377.09;5009480;28;20054;-51
2022/04/01 11:04:28;;;;;;;5.40;4.70;;;;;;;5.37;62.27;99373.53;5011148;28;20061;-48
2022/04/01 11:06:56;;;;;;;5.65;4.97;;;;;;;5.46;62.10;99384.69;5005576;28;20054;-50
2022/04/01 11:09:43;;;;;;;9.20;5.07;;;;;;;5.44;61.90;99390.50;5010320;28;20498;-48
2022/04/01 11:12:28;;;;;;;6.65;4.53;;;;;;;5.37;61.99;99386.50;5004742;28;20124;-49
2022/04/01 11:15:10;;;;;;;5.63;4.20;;;;;;;5.48;62.43;99388.78;5001418;28;20054;-51
2022/04/01 11:18:09;;;;;;;6.35;5.25;;;;;;;5.51;62.51;99392.84;5005298;28;20061;-51
2022/04/01 11:20:39;;;;;;;5.78;4.63;;;;;;;5.64;62.65;99393.97;5004874;28;20046;-49
2022/04/01 11:23:14;;;;;;;6.70;4.57;;;;;;;5.75;62.09;99387.09;5007997;28;20050;-50
2022/04/01 11:25:58;;;;;;;7.13;4.97;;;;;;;5.58;61.52;99397.97;5001466;28;20049;-54
2022/04/01 11:28:30;;;;;;;5.50;4.55;;;;;;;5.48;62.44;99399.81;5011331;28;20429;-48
2022/04/01 11:31:11;;;;;;;6.05;5.18;;;;;;;5.40;62.41;99402.47;5010295;28;20415;-53
2022/04/01 11:33:40;;;;;;;5.93;5.32;;;;;;;5.49;62.53;99400.63;5007180;28;20054;-52
2022/04/01 11:36:08;;;;;;;7.30;5.93;;;;;;;5.49;62.39;99400.63;5008728;28;20057;-50
2022/04/01 11:38:37;;;;;;;6.95;5.50;;;;;;;5.51;62.42;99406.66;5013946;28;20060;-49
2022/04/01 11:41:08;;;;;;;6.60;5.07;;;;;;;5.45;62.76;99416.19;5013844;28;20384;-48
2022/04/01 11:43:36;;;;;;;7.28;5.57;;;;;;;5.41;62.83;99406.88;5008607;28;20050;-48
2022/04/01 11:46:06;;;;;;;5.93;4.68;;;;;;;5.47;63.85;99411.97;5014277;28;20410;-51
2022/04/01 11:48:36;;;;;;;7.88;5.10;;;;;;;5.36;63.37;99412.50;5011615;28;20058;-50
2022/04/01 11:51:06;;;;;;;7.18;5.82;;;;;;;5.49;63.57;99408.91;5004860;28;20042;-50
2022/04/01 11:53:36;;;;;;;6.80;5.55;;;;;;;5.60;63.98;99409.53;5005800;28;20494;-48
2022/04/01 11:56:04;;;;;;;;;;;;;;;5.51;63.69;99414.97;5009714;28;20410;-48
2022/04/01 11:58:37;;;;;;;6.40;5.38;;;;;;;5.46;64.16;99424.16;5013285;28;19944;-49
2022/04/01 12:01:04;;;;;;;7.38;5.85;;;;;;;5.49;63.97;99422.72;5014126;28;20053;-48
2022/04/01 12:03:32;;;;;;;6.65;5.57;;;;;;;5.48;63.98;99418.31;5014237;28;20057;-50
2022/04/01 12:08:42;;;;;;;6.65;5.50;;;;;;;5.39;64.13;99422.94;5000996;28;20065;-49
2022/04/01 12:11:10;;;;;;;8.10;6.35;;;;;;;5.26;64.63;99424.56;5010216;28;20054;-51
2022/04/01 12:13:43;;;;;;;6.50;5.78;;;;;;;5.37;65.02;99425.16;4997866;28;20050;-48